sensor_id;sensor_type;location;lat;lon;timestamp;P1;durP1;ratioP1;P2;durP2;ratioP2
54849;SDS011;47660;51.334;12.396;2023-02-28T00:00:07;4.13;;;1.33;;
54849;SDS011;47660;51.334;12.396;2023-02-28T00:02:35;3.88;;;1.70;;
54849;SDS011;47660;51.334;12.396;2023-02-28T00:05:05;2.03;;;1.30;;
54849;SDS011;47660;51.334;12.396;2023-02-28T00:07:31;4.28;;;1.70;;
54849;SDS011;47660;51.334;12.396;2023-02-28T00:10:00;7.38;;;1.90;;
54849;SDS011;47660;51.334;12.396;2023-02-28T00:12:26;2.05;;;1.00;;
54849;SDS011;47660;51.334;12.396;2023-02-28T00:14:52;2.25;;;1.10;;
54849;SDS011;47660;51.334;12.396;2023-02-28T00:17:20;3.08;;;1.40;;
54849;SDS011;47660;51.334;12.396;2023-02-28T00:19:50;3.30;;;1.38;;
54849;SDS011;47660;51.334;12.396;2023-02-28T00:22:19;3.13;;;1.90;;
54849;SDS011;47660;51.334;12.396;2023-02-28T00:24:46;2.35;;;1.30;;
54849;SDS011;47660;51.334;12.396;2023-02-28T00:27:14;2.90;;;1.85;;
54849;SDS011;47660;51.334;12.396;2023-02-28T00:29:42;6.13;;;2.17;;
54849;SDS011;47660;51.334;12.396;2023-02-28T00:32:07;2.83;;;1.70;;
54849;SDS011;47660;51.334;12.396;2023-02-28T00:34:35;2.88;;;1.70;;
54849;SDS011;47660;51.334;12.396;2023-02-28T00:37:05;5.22;;;1.70;;
54849;SDS011;47660;51.334;12.396;2023-02-28T00:39:36;3.08;;;1.73;;
54849;SDS011;47660;51.334;12.396;2023-02-28T00:42:04;4.90;;;1.98;;
54849;SDS011;47660;51.334;12.396;2023-02-28T00:44:31;2.13;;;1.20;;
54849;SDS011;47660;51.334;12.396;2023-02-28T00:46:56;3.30;;;2.05;;
54849;SDS011;47660;51.334;12.396;2023-02-28T00:49:22;4.72;;;2.10;;
54849;SDS011;47660;51.334;12.396;2023-02-28T00:51:49;3.13;;;1.77;;
54849;SDS011;47660;51.334;12.396;2023-02-28T00:54:15;5.85;;;1.50;;
54849;SDS011;47660;51.334;12.396;2023-02-28T00:56:41;7.03;;;2.20;;
54849;SDS011;47660;51.334;12.396;2023-02-28T00:59:09;2.63;;;1.38;;
54849;SDS011;47660;51.334;12.396;2023-02-28T01:01:34;3.38;;;1.95;;
54849;SDS011;47660;51.334;12.396;2023-02-28T01:04:02;2.05;;;1.40;;
54849;SDS011;47660;51.334;12.396;2023-02-28T01:06:28;3.33;;;1.38;;
54849;SDS011;47660;51.334;12.396;2023-02-28T01:08:56;2.30;;;1.50;;
54849;SDS011;47660;51.334;12.396;2023-02-28T01:11:22;3.05;;;1.45;;
54849;SDS011;47660;51.334;12.396;2023-02-28T01:13:47;2.70;;;1.30;;
54849;SDS011;47660;51.334;12.396;2023-02-28T01:16:13;2.53;;;1.48;;
54849;SDS011;47660;51.334;12.396;2023-02-28T01:18:39;2.88;;;1.67;;
54849;SDS011;47660;51.334;12.396;2023-02-28T01:21:09;3.47;;;1.40;;
54849;SDS011;47660;51.334;12.396;2023-02-28T01:23:37;3.55;;;1.27;;
54849;SDS011;47660;51.334;12.396;2023-02-28T01:26:06;2.75;;;1.33;;
54849;SDS011;47660;51.334;12.396;2023-02-28T01:28:36;4.50;;;1.48;;
54849;SDS011;47660;51.334;12.396;2023-02-28T01:31:02;3.22;;;1.48;;
54849;SDS011;47660;51.334;12.396;2023-02-28T01:33:27;1.67;;;1.15;;
54849;SDS011;47660;51.334;12.396;2023-02-28T01:36:01;2.67;;;1.83;;
54849;SDS011;47660;51.334;12.396;2023-02-28T01:38:29;4.00;;;1.55;;
54849;SDS011;47660;51.334;12.396;2023-02-28T01:40:54;4.10;;;2.00;;
54849;SDS011;47660;51.334;12.396;2023-02-28T01:43:24;2.67;;;1.73;;
54849;SDS011;47660;51.334;12.396;2023-02-28T01:45:55;3.38;;;1.92;;
54849;SDS011;47660;51.334;12.396;2023-02-28T01:48:24;2.72;;;1.50;;
54849;SDS011;47660;51.334;12.396;2023-02-28T01:50:56;2.15;;;1.55;;
54849;SDS011;47660;51.334;12.396;2023-02-28T01:53:33;3.50;;;1.95;;
54849;SDS011;47660;51.334;12.396;2023-02-28T01:56:04;3.55;;;1.40;;
54849;SDS011;47660;51.334;12.396;2023-02-28T01:58:32;3.15;;;2.20;;
54849;SDS011;47660;51.334;12.396;2023-02-28T02:00:59;2.55;;;1.60;;
54849;SDS011;47660;51.334;12.396;2023-02-28T02:03:24;4.78;;;1.60;;
54849;SDS011;47660;51.334;12.396;2023-02-28T02:05:50;5.43;;;1.83;;
54849;SDS011;47660;51.334;12.396;2023-02-28T02:08:17;2.75;;;1.30;;
54849;SDS011;47660;51.334;12.396;2023-02-28T02:10:50;2.42;;;1.80;;
54849;SDS011;47660;51.334;12.396;2023-02-28T02:13:28;2.35;;;1.55;;
54849;SDS011;47660;51.334;12.396;2023-02-28T02:24:01;2.28;;;1.23;;
54849;SDS011;47660;51.334;12.396;2023-02-28T02:26:58;5.22;;;1.55;;
54849;SDS011;47660;51.334;12.396;2023-02-28T02:37:46;2.33;;;1.25;;
54849;SDS011;47660;51.334;12.396;2023-02-28T02:40:20;3.72;;;1.52;;
54849;SDS011;47660;51.334;12.396;2023-02-28T02:45:31;2.63;;;1.58;;
54849;SDS011;47660;51.334;12.396;2023-02-28T02:48:03;3.30;;;1.85;;
54849;SDS011;47660;51.334;12.396;2023-02-28T02:50:40;1.75;;;1.15;;
54849;SDS011;47660;51.334;12.396;2023-02-28T02:53:11;2.50;;;1.95;;
54849;SDS011;47660;51.334;12.396;2023-02-28T02:55:41;3.13;;;1.48;;
54849;SDS011;47660;51.334;12.396;2023-02-28T02:58:13;3.20;;;1.45;;
54849;SDS011;47660;51.334;12.396;2023-02-28T03:00:41;2.67;;;1.50;;
54849;SDS011;47660;51.334;12.396;2023-02-28T03:03:13;2.40;;;1.30;;
54849;SDS011;47660;51.334;12.396;2023-02-28T03:05:44;1.38;;;1.02;;
54849;SDS011;47660;51.334;12.396;2023-02-28T03:08:12;3.67;;;1.33;;
54849;SDS011;47660;51.334;12.396;2023-02-28T03:10:43;2.75;;;1.33;;
54849;SDS011;47660;51.334;12.396;2023-02-28T03:13:19;2.30;;;1.67;;
54849;SDS011;47660;51.334;12.396;2023-02-28T03:21:36;4.10;;;1.42;;
54849;SDS011;47660;51.334;12.396;2023-02-28T03:26:41;6.43;;;2.15;;
54849;SDS011;47660;51.334;12.396;2023-02-28T03:29:13;2.72;;;1.35;;
54849;SDS011;47660;51.334;12.396;2023-02-28T03:31:50;4.15;;;1.25;;
54849;SDS011;47660;51.334;12.396;2023-02-28T03:37:08;2.85;;;1.30;;
54849;SDS011;47660;51.334;12.396;2023-02-28T03:39:37;3.83;;;1.77;;
54849;SDS011;47660;51.334;12.396;2023-02-28T03:42:15;3.05;;;1.60;;
54849;SDS011;47660;51.334;12.396;2023-02-28T03:44:46;1.33;;;1.02;;
54849;SDS011;47660;51.334;12.396;2023-02-28T03:47:27;2.78;;;1.25;;
54849;SDS011;47660;51.334;12.396;2023-02-28T03:49:59;3.13;;;1.38;;
54849;SDS011;47660;51.334;12.396;2023-02-28T03:52:35;5.40;;;1.80;;
54849;SDS011;47660;51.334;12.396;2023-02-28T03:55:06;4.35;;;1.85;;
54849;SDS011;47660;51.334;12.396;2023-02-28T04:00:47;3.60;;;2.10;;
54849;SDS011;47660;51.334;12.396;2023-02-28T04:03:21;2.13;;;1.23;;
54849;SDS011;47660;51.334;12.396;2023-02-28T04:05:52;2.45;;;1.27;;
54849;SDS011;47660;51.334;12.396;2023-02-28T04:08:20;3.35;;;1.77;;
54849;SDS011;47660;51.334;12.396;2023-02-28T04:10:48;2.75;;;1.52;;
54849;SDS011;47660;51.334;12.396;2023-02-28T04:13:19;2.17;;;1.45;;
54849;SDS011;47660;51.334;12.396;2023-02-28T04:15:44;1.92;;;1.40;;
54849;SDS011;47660;51.334;12.396;2023-02-28T04:18:09;2.70;;;1.83;;
54849;SDS011;47660;51.334;12.396;2023-02-28T04:20:35;3.00;;;1.85;;
54849;SDS011;47660;51.334;12.396;2023-02-28T04:23:01;2.90;;;1.77;;
54849;SDS011;47660;51.334;12.396;2023-02-28T04:25:29;6.45;;;1.45;;
54849;SDS011;47660;51.334;12.396;2023-02-28T04:27:54;3.25;;;1.60;;
54849;SDS011;47660;51.334;12.396;2023-02-28T04:30:19;4.80;;;1.70;;
54849;SDS011;47660;51.334;12.396;2023-02-28T04:32:45;1.52;;;1.13;;
54849;SDS011;47660;51.334;12.396;2023-02-28T04:35:10;3.80;;;2.00;;
54849;SDS011;47660;51.334;12.396;2023-02-28T04:37:38;4.78;;;1.60;;
54849;SDS011;47660;51.334;12.396;2023-02-28T04:40:07;2.00;;;1.50;;
54849;SDS011;47660;51.334;12.396;2023-02-28T04:42:33;3.58;;;1.50;;
54849;SDS011;47660;51.334;12.396;2023-02-28T04:45:03;3.35;;;2.10;;
54849;SDS011;47660;51.334;12.396;2023-02-28T04:47:29;4.95;;;2.50;;
54849;SDS011;47660;51.334;12.396;2023-02-28T04:49:55;1.73;;;1.25;;
54849;SDS011;47660;51.334;12.396;2023-02-28T04:52:21;3.13;;;1.88;;
54849;SDS011;47660;51.334;12.396;2023-02-28T04:54:46;3.25;;;1.80;;
54849;SDS011;47660;51.334;12.396;2023-02-28T04:57:12;4.93;;;2.08;;
54849;SDS011;47660;51.334;12.396;2023-02-28T04:59:40;2.50;;;1.40;;
54849;SDS011;47660;51.334;12.396;2023-02-28T05:02:06;2.30;;;1.35;;
54849;SDS011;47660;51.334;12.396;2023-02-28T05:04:34;3.40;;;1.50;;
54849;SDS011;47660;51.334;12.396;2023-02-28T05:07:03;3.10;;;1.73;;
54849;SDS011;47660;51.334;12.396;2023-02-28T05:09:28;4.00;;;1.70;;
54849;SDS011;47660;51.334;12.396;2023-02-28T05:11:54;2.95;;;1.58;;
54849;SDS011;47660;51.334;12.396;2023-02-28T05:14:20;2.85;;;1.38;;
54849;SDS011;47660;51.334;12.396;2023-02-28T05:16:46;4.25;;;1.73;;
54849;SDS011;47660;51.334;12.396;2023-02-28T05:19:14;1.83;;;1.60;;
54849;SDS011;47660;51.334;12.396;2023-02-28T05:21:40;3.17;;;1.80;;
54849;SDS011;47660;51.334;12.396;2023-02-28T05:24:09;4.47;;;1.70;;
54849;SDS011;47660;51.334;12.396;2023-02-28T05:26:37;3.22;;;1.35;;
54849;SDS011;47660;51.334;12.396;2023-02-28T05:29:06;2.60;;;1.70;;
54849;SDS011;47660;51.334;12.396;2023-02-28T05:31:34;2.10;;;1.50;;
54849;SDS011;47660;51.334;12.396;2023-02-28T05:34:00;3.40;;;1.88;;
54849;SDS011;47660;51.334;12.396;2023-02-28T05:36:29;2.97;;;1.88;;
54849;SDS011;47660;51.334;12.396;2023-02-28T05:38:55;3.83;;;1.92;;
54849;SDS011;47660;51.334;12.396;2023-02-28T05:41:20;4.85;;;1.95;;
54849;SDS011;47660;51.334;12.396;2023-02-28T05:43:46;2.35;;;1.15;;
54849;SDS011;47660;51.334;12.396;2023-02-28T05:46:13;3.40;;;1.67;;
54849;SDS011;47660;51.334;12.396;2023-02-28T05:48:39;2.13;;;1.65;;
54849;SDS011;47660;51.334;12.396;2023-02-28T05:51:07;2.78;;;1.98;;
54849;SDS011;47660;51.334;12.396;2023-02-28T05:53:33;3.58;;;1.98;;
54849;SDS011;47660;51.334;12.396;2023-02-28T05:56:01;3.88;;;2.05;;
54849;SDS011;47660;51.334;12.396;2023-02-28T05:58:28;6.80;;;1.70;;
54849;SDS011;47660;51.334;12.396;2023-02-28T06:00:56;5.47;;;1.80;;
54849;SDS011;47660;51.334;12.396;2023-02-28T06:03:25;3.75;;;2.22;;
54849;SDS011;47660;51.334;12.396;2023-02-28T06:05:53;4.88;;;1.92;;
54849;SDS011;47660;51.334;12.396;2023-02-28T06:08:19;3.50;;;2.28;;
54849;SDS011;47660;51.334;12.396;2023-02-28T06:10:47;3.42;;;1.80;;
54849;SDS011;47660;51.334;12.396;2023-02-28T06:13:12;2.55;;;1.60;;
54849;SDS011;47660;51.334;12.396;2023-02-28T06:15:40;3.15;;;1.65;;
54849;SDS011;47660;51.334;12.396;2023-02-28T06:18:05;2.75;;;1.70;;
54849;SDS011;47660;51.334;12.396;2023-02-28T06:20:31;5.82;;;1.73;;
54849;SDS011;47660;51.334;12.396;2023-02-28T06:22:57;3.35;;;1.63;;
54849;SDS011;47660;51.334;12.396;2023-02-28T06:25:26;4.32;;;2.10;;
54849;SDS011;47660;51.334;12.396;2023-02-28T06:27:52;2.70;;;1.58;;
54849;SDS011;47660;51.334;12.396;2023-02-28T06:30:18;4.50;;;2.17;;
54849;SDS011;47660;51.334;12.396;2023-02-28T06:32:55;3.45;;;1.90;;
54849;SDS011;47660;51.334;12.396;2023-02-28T06:35:23;4.20;;;1.85;;
54849;SDS011;47660;51.334;12.396;2023-02-28T06:37:51;7.35;;;2.00;;
54849;SDS011;47660;51.334;12.396;2023-02-28T06:40:17;2.83;;;1.80;;
54849;SDS011;47660;51.334;12.396;2023-02-28T06:42:48;4.75;;;1.60;;
54849;SDS011;47660;51.334;12.396;2023-02-28T06:45:13;8.07;;;2.17;;
54849;SDS011;47660;51.334;12.396;2023-02-28T06:47:39;6.30;;;2.50;;
54849;SDS011;47660;51.334;12.396;2023-02-28T06:50:06;5.93;;;1.95;;
54849;SDS011;47660;51.334;12.396;2023-02-28T06:52:34;5.32;;;2.00;;
54849;SDS011;47660;51.334;12.396;2023-02-28T06:55:03;5.18;;;2.20;;
54849;SDS011;47660;51.334;12.396;2023-02-28T06:57:32;2.28;;;1.90;;
54849;SDS011;47660;51.334;12.396;2023-02-28T06:59:59;4.45;;;2.00;;
54849;SDS011;47660;51.334;12.396;2023-02-28T07:02:26;3.13;;;1.65;;
54849;SDS011;47660;51.334;12.396;2023-02-28T07:04:54;1.55;;;1.38;;
54849;SDS011;47660;51.334;12.396;2023-02-28T07:07:20;5.57;;;2.08;;
54849;SDS011;47660;51.334;12.396;2023-02-28T07:09:48;4.90;;;1.77;;
54849;SDS011;47660;51.334;12.396;2023-02-28T07:12:13;4.60;;;2.03;;
54849;SDS011;47660;51.334;12.396;2023-02-28T07:14:39;3.05;;;2.10;;
54849;SDS011;47660;51.334;12.396;2023-02-28T07:17:06;4.47;;;2.35;;
54849;SDS011;47660;51.334;12.396;2023-02-28T07:19:32;2.92;;;2.08;;
54849;SDS011;47660;51.334;12.396;2023-02-28T07:22:00;2.33;;;1.75;;
54849;SDS011;47660;51.334;12.396;2023-02-28T07:24:27;1.30;;;1.20;;
54849;SDS011;47660;51.334;12.396;2023-02-28T07:26:54;3.75;;;1.70;;
54849;SDS011;47660;51.334;12.396;2023-02-28T07:29:22;2.55;;;1.67;;
54849;SDS011;47660;51.334;12.396;2023-02-28T07:31:49;3.95;;;2.00;;
54849;SDS011;47660;51.334;12.396;2023-02-28T07:34:18;8.35;;;1.85;;
54849;SDS011;47660;51.334;12.396;2023-02-28T07:36:44;3.97;;;1.90;;
54849;SDS011;47660;51.334;12.396;2023-02-28T07:39:09;10.60;;;2.30;;
54849;SDS011;47660;51.334;12.396;2023-02-28T07:41:35;5.50;;;2.33;;
54849;SDS011;47660;51.334;12.396;2023-02-28T07:44:04;3.58;;;2.15;;
54849;SDS011;47660;51.334;12.396;2023-02-28T07:46:30;4.75;;;2.30;;
54849;SDS011;47660;51.334;12.396;2023-02-28T07:49:00;7.22;;;2.38;;
54849;SDS011;47660;51.334;12.396;2023-02-28T07:51:28;6.18;;;2.38;;
54849;SDS011;47660;51.334;12.396;2023-02-28T07:53:57;19.70;;;7.30;;
54849;SDS011;47660;51.334;12.396;2023-02-28T07:56:23;17.73;;;7.15;;
54849;SDS011;47660;51.334;12.396;2023-02-28T07:58:48;9.90;;;5.28;;
54849;SDS011;47660;51.334;12.396;2023-02-28T08:01:14;15.45;;;5.18;;
54849;SDS011;47660;51.334;12.396;2023-02-28T08:03:40;5.80;;;3.17;;
54849;SDS011;47660;51.334;12.396;2023-02-28T08:06:09;7.95;;;3.05;;
54849;SDS011;47660;51.334;12.396;2023-02-28T08:08:41;7.63;;;3.33;;
54849;SDS011;47660;51.334;12.396;2023-02-28T08:11:06;9.20;;;3.13;;
54849;SDS011;47660;51.334;12.396;2023-02-28T08:13:32;8.40;;;3.38;;
54849;SDS011;47660;51.334;12.396;2023-02-28T08:15:57;4.68;;;2.42;;
54849;SDS011;47660;51.334;12.396;2023-02-28T08:18:23;6.80;;;2.95;;
54849;SDS011;47660;51.334;12.396;2023-02-28T08:20:52;6.53;;;3.35;;
54849;SDS011;47660;51.334;12.396;2023-02-28T08:23:20;5.80;;;2.80;;
54849;SDS011;47660;51.334;12.396;2023-02-28T08:25:52;6.53;;;3.75;;
54849;SDS011;47660;51.334;12.396;2023-02-28T08:28:18;5.10;;;2.28;;
54849;SDS011;47660;51.334;12.396;2023-02-28T08:30:43;6.55;;;3.00;;
54849;SDS011;47660;51.334;12.396;2023-02-28T08:33:09;5.43;;;2.35;;
54849;SDS011;47660;51.334;12.396;2023-02-28T08:35:36;5.43;;;2.72;;
54849;SDS011;47660;51.334;12.396;2023-02-28T08:38:02;4.20;;;2.25;;
54849;SDS011;47660;51.334;12.396;2023-02-28T08:40:28;3.05;;;1.67;;
54849;SDS011;47660;51.334;12.396;2023-02-28T08:42:53;3.50;;;1.98;;
54849;SDS011;47660;51.334;12.396;2023-02-28T08:45:21;3.13;;;1.90;;
54849;SDS011;47660;51.334;12.396;2023-02-28T08:47:48;7.80;;;2.20;;
54849;SDS011;47660;51.334;12.396;2023-02-28T08:50:14;3.67;;;1.88;;
54849;SDS011;47660;51.334;12.396;2023-02-28T08:52:42;4.97;;;2.00;;
54849;SDS011;47660;51.334;12.396;2023-02-28T08:55:10;4.93;;;1.90;;
54849;SDS011;47660;51.334;12.396;2023-02-28T08:57:36;3.13;;;1.85;;
54849;SDS011;47660;51.334;12.396;2023-02-28T09:00:04;2.70;;;1.65;;
54849;SDS011;47660;51.334;12.396;2023-02-28T09:02:30;4.18;;;2.10;;
54849;SDS011;47660;51.334;12.396;2023-02-28T09:04:59;4.53;;;2.25;;
54849;SDS011;47660;51.334;12.396;2023-02-28T09:07:24;3.33;;;2.05;;
54849;SDS011;47660;51.334;12.396;2023-02-28T09:09:53;4.88;;;2.47;;
54849;SDS011;47660;51.334;12.396;2023-02-28T09:12:23;4.45;;;2.45;;
54849;SDS011;47660;51.334;12.396;2023-02-28T09:14:50;5.05;;;1.83;;
54849;SDS011;47660;51.334;12.396;2023-02-28T09:17:16;3.60;;;1.75;;
54849;SDS011;47660;51.334;12.396;2023-02-28T09:19:41;3.97;;;1.52;;
54849;SDS011;47660;51.334;12.396;2023-02-28T09:22:07;4.63;;;1.98;;
54849;SDS011;47660;51.334;12.396;2023-02-28T09:24:35;6.28;;;2.35;;
54849;SDS011;47660;51.334;12.396;2023-02-28T09:27:01;2.70;;;1.50;;
54849;SDS011;47660;51.334;12.396;2023-02-28T09:29:29;10.20;;;3.88;;
54849;SDS011;47660;51.334;12.396;2023-02-28T09:31:54;6.35;;;3.17;;
54849;SDS011;47660;51.334;12.396;2023-02-28T09:34:24;5.70;;;2.45;;
54849;SDS011;47660;51.334;12.396;2023-02-28T09:37:13;4.35;;;2.13;;
54849;SDS011;47660;51.334;12.396;2023-02-28T09:39:38;3.80;;;2.00;;
54849;SDS011;47660;51.334;12.396;2023-02-28T09:42:13;7.50;;;2.35;;
54849;SDS011;47660;51.334;12.396;2023-02-28T09:44:47;4.50;;;2.75;;
54849;SDS011;47660;51.334;12.396;2023-02-28T09:52:59;3.60;;;1.92;;
54849;SDS011;47660;51.334;12.396;2023-02-28T09:58:26;2.33;;;1.75;;
54849;SDS011;47660;51.334;12.396;2023-02-28T10:09:53;5.88;;;2.25;;
54849;SDS011;47660;51.334;12.396;2023-02-28T10:12:22;3.95;;;2.15;;
54849;SDS011;47660;51.334;12.396;2023-02-28T10:14:51;2.45;;;1.95;;
54849;SDS011;47660;51.334;12.396;2023-02-28T10:17:23;2.88;;;2.10;;
54849;SDS011;47660;51.334;12.396;2023-02-28T10:25:41;3.53;;;2.13;;
54849;SDS011;47660;51.334;12.396;2023-02-28T10:30:49;4.10;;;1.50;;
54849;SDS011;47660;51.334;12.396;2023-02-28T10:35:50;4.05;;;1.67;;
54849;SDS011;47660;51.334;12.396;2023-02-28T10:38:18;5.57;;;1.92;;
54849;SDS011;47660;51.334;12.396;2023-02-28T10:40:50;5.18;;;1.90;;
54849;SDS011;47660;51.334;12.396;2023-02-28T10:45:53;3.55;;;2.20;;
54849;SDS011;47660;51.334;12.396;2023-02-28T10:55:55;5.53;;;2.85;;
54849;SDS011;47660;51.334;12.396;2023-02-28T10:58:23;5.10;;;2.55;;
54849;SDS011;47660;51.334;12.396;2023-02-28T11:00:53;6.05;;;1.98;;
54849;SDS011;47660;51.334;12.396;2023-02-28T11:03:25;10.18;;;2.70;;
54849;SDS011;47660;51.334;12.396;2023-02-28T11:05:57;2.93;;;1.83;;
54849;SDS011;47660;51.334;12.396;2023-02-28T11:08:26;6.65;;;2.63;;
54849;SDS011;47660;51.334;12.396;2023-02-28T11:10:56;4.90;;;2.03;;
54849;SDS011;47660;51.334;12.396;2023-02-28T11:13:25;4.70;;;2.83;;
54849;SDS011;47660;51.334;12.396;2023-02-28T11:15:59;3.17;;;2.35;;
54849;SDS011;47660;51.334;12.396;2023-02-28T11:18:34;5.15;;;2.60;;
54849;SDS011;47660;51.334;12.396;2023-02-28T11:21:01;4.38;;;2.80;;
54849;SDS011;47660;51.334;12.396;2023-02-28T11:23:31;8.98;;;2.53;;
54849;SDS011;47660;51.334;12.396;2023-02-28T11:26:03;4.20;;;2.22;;
54849;SDS011;47660;51.334;12.396;2023-02-28T11:28:39;7.22;;;3.17;;
54849;SDS011;47660;51.334;12.396;2023-02-28T11:33:45;6.15;;;2.53;;
54849;SDS011;47660;51.334;12.396;2023-02-28T11:38:52;6.55;;;3.40;;
54849;SDS011;47660;51.334;12.396;2023-02-28T11:50:16;7.10;;;3.15;;
54849;SDS011;47660;51.334;12.396;2023-02-28T12:06:26;4.88;;;3.15;;
54849;SDS011;47660;51.334;12.396;2023-02-28T12:09:15;3.83;;;2.45;;
54849;SDS011;47660;51.334;12.396;2023-02-28T12:20:54;7.05;;;3.15;;
54849;SDS011;47660;51.334;12.396;2023-02-28T12:26:06;7.30;;;3.20;;
54849;SDS011;47660;51.334;12.396;2023-02-28T12:28:53;6.40;;;2.97;;
54849;SDS011;47660;51.334;12.396;2023-02-28T12:31:26;8.32;;;3.53;;
54849;SDS011;47660;51.334;12.396;2023-02-28T12:34:06;6.10;;;3.05;;
54849;SDS011;47660;51.334;12.396;2023-02-28T12:36:42;5.80;;;2.97;;
54849;SDS011;47660;51.334;12.396;2023-02-28T12:39:20;6.88;;;3.38;;
54849;SDS011;47660;51.334;12.396;2023-02-28T12:41:53;8.43;;;3.45;;
54849;SDS011;47660;51.334;12.396;2023-02-28T12:44:34;7.30;;;3.33;;
54849;SDS011;47660;51.334;12.396;2023-02-28T12:47:08;5.47;;;2.97;;
54849;SDS011;47660;51.334;12.396;2023-02-28T12:49:45;6.35;;;3.33;;
54849;SDS011;47660;51.334;12.396;2023-02-28T12:55:32;6.70;;;3.30;;
54849;SDS011;47660;51.334;12.396;2023-02-28T12:58:18;5.88;;;3.50;;
54849;SDS011;47660;51.334;12.396;2023-02-28T13:09:11;8.23;;;3.20;;
54849;SDS011;47660;51.334;12.396;2023-02-28T13:11:46;5.57;;;3.25;;
54849;SDS011;47660;51.334;12.396;2023-02-28T13:14:35;7.10;;;3.75;;
54849;SDS011;47660;51.334;12.396;2023-02-28T13:19:56;6.63;;;3.33;;
54849;SDS011;47660;51.334;12.396;2023-02-28T13:22:43;10.48;;;4.28;;
54849;SDS011;47660;51.334;12.396;2023-02-28T13:26:02;9.30;;;4.10;;
54849;SDS011;47660;51.334;12.396;2023-02-28T13:28:08;5.97;;;3.80;;
54849;SDS011;47660;51.334;12.396;2023-02-28T13:38:33;6.20;;;3.03;;
54849;SDS011;47660;51.334;12.396;2023-02-28T13:44:16;8.10;;;3.05;;
54849;SDS011;47660;51.334;12.396;2023-02-28T13:49:20;5.32;;;3.28;;
54849;SDS011;47660;51.334;12.396;2023-02-28T14:05:41;7.03;;;3.80;;
54849;SDS011;47660;51.334;12.396;2023-02-28T14:11:05;6.60;;;4.07;;
54849;SDS011;47660;51.334;12.396;2023-02-28T14:16:15;5.47;;;3.65;;
54849;SDS011;47660;51.334;12.396;2023-02-28T14:21:34;9.38;;;4.20;;
54849;SDS011;47660;51.334;12.396;2023-02-28T14:24:23;7.50;;;4.43;;
54849;SDS011;47660;51.334;12.396;2023-02-28T14:39:16;7.27;;;3.73;;
54849;SDS011;47660;51.334;12.396;2023-02-28T14:42:24;12.60;;;3.97;;
54849;SDS011;47660;51.334;12.396;2023-02-28T14:45:36;6.03;;;3.70;;
54849;SDS011;47660;51.334;12.396;2023-02-28T14:48:07;11.27;;;4.25;;
54849;SDS011;47660;51.334;12.396;2023-02-28T14:50:55;8.93;;;4.07;;
54849;SDS011;47660;51.334;12.396;2023-02-28T14:53:36;7.38;;;3.50;;
54849;SDS011;47660;51.334;12.396;2023-02-28T14:56:05;7.47;;;4.20;;
54849;SDS011;47660;51.334;12.396;2023-02-28T14:58:34;7.07;;;3.95;;
54849;SDS011;47660;51.334;12.396;2023-02-28T15:01:26;7.90;;;4.10;;
54849;SDS011;47660;51.334;12.396;2023-02-28T15:04:03;6.93;;;4.50;;
54849;SDS011;47660;51.334;12.396;2023-02-28T15:06:40;7.95;;;4.03;;
54849;SDS011;47660;51.334;12.396;2023-02-28T15:12:34;8.10;;;4.53;;
54849;SDS011;47660;51.334;12.396;2023-02-28T15:15:04;6.32;;;4.05;;
54849;SDS011;47660;51.334;12.396;2023-02-28T15:17:39;7.68;;;4.35;;
54849;SDS011;47660;51.334;12.396;2023-02-28T15:20:10;8.95;;;4.57;;
54849;SDS011;47660;51.334;12.396;2023-02-28T15:22:40;7.25;;;4.40;;
54849;SDS011;47660;51.334;12.396;2023-02-28T15:25:10;7.05;;;4.22;;
54849;SDS011;47660;51.334;12.396;2023-02-28T15:27:46;8.60;;;4.45;;
54849;SDS011;47660;51.334;12.396;2023-02-28T15:30:18;8.70;;;4.15;;
54849;SDS011;47660;51.334;12.396;2023-02-28T15:33:17;8.90;;;4.60;;
54849;SDS011;47660;51.334;12.396;2023-02-28T15:35:46;8.10;;;4.38;;
54849;SDS011;47660;51.334;12.396;2023-02-28T15:38:23;7.95;;;4.45;;
54849;SDS011;47660;51.334;12.396;2023-02-28T15:40:56;11.38;;;4.50;;
54849;SDS011;47660;51.334;12.396;2023-02-28T15:43:27;5.30;;;3.30;;
54849;SDS011;47660;51.334;12.396;2023-02-28T15:45:58;12.38;;;4.50;;
54849;SDS011;47660;51.334;12.396;2023-02-28T15:48:29;9.50;;;4.07;;
54849;SDS011;47660;51.334;12.396;2023-02-28T15:56:24;8.60;;;4.30;;
54849;SDS011;47660;51.334;12.396;2023-02-28T15:59:01;10.43;;;3.85;;
54849;SDS011;47660;51.334;12.396;2023-02-28T16:01:33;9.50;;;3.93;;
54849;SDS011;47660;51.334;12.396;2023-02-28T16:04:00;6.57;;;3.80;;
54849;SDS011;47660;51.334;12.396;2023-02-28T16:09:04;14.10;;;5.93;;
54849;SDS011;47660;51.334;12.396;2023-02-28T16:11:33;9.73;;;5.25;;
54849;SDS011;47660;51.334;12.396;2023-02-28T16:14:03;5.38;;;4.30;;
54849;SDS011;47660;51.334;12.396;2023-02-28T16:16:33;7.72;;;3.55;;
54849;SDS011;47660;51.334;12.396;2023-02-28T16:18:59;7.63;;;4.20;;
54849;SDS011;47660;51.334;12.396;2023-02-28T16:21:27;7.57;;;3.80;;
54849;SDS011;47660;51.334;12.396;2023-02-28T16:23:52;7.10;;;3.92;;
54849;SDS011;47660;51.334;12.396;2023-02-28T16:26:22;7.50;;;3.88;;
54849;SDS011;47660;51.334;12.396;2023-02-28T16:28:52;6.00;;;3.70;;
54849;SDS011;47660;51.334;12.396;2023-02-28T16:31:20;10.07;;;3.67;;
54849;SDS011;47660;51.334;12.396;2023-02-28T16:33:49;6.93;;;3.55;;
54849;SDS011;47660;51.334;12.396;2023-02-28T16:36:19;6.97;;;3.67;;
54849;SDS011;47660;51.334;12.396;2023-02-28T16:38:50;8.35;;;4.28;;
54849;SDS011;47660;51.334;12.396;2023-02-28T16:41:19;6.55;;;4.13;;
54849;SDS011;47660;51.334;12.396;2023-02-28T16:43:47;8.27;;;4.28;;
54849;SDS011;47660;51.334;12.396;2023-02-28T16:46:17;8.30;;;3.47;;
54849;SDS011;47660;51.334;12.396;2023-02-28T16:48:47;8.75;;;3.83;;
54849;SDS011;47660;51.334;12.396;2023-02-28T16:51:18;7.18;;;3.88;;
54849;SDS011;47660;51.334;12.396;2023-02-28T16:53:44;8.20;;;4.55;;
54849;SDS011;47660;51.334;12.396;2023-02-28T16:56:28;8.05;;;3.95;;
54849;SDS011;47660;51.334;12.396;2023-02-28T16:58:59;7.68;;;3.35;;
54849;SDS011;47660;51.334;12.396;2023-02-28T17:01:26;6.68;;;3.20;;
54849;SDS011;47660;51.334;12.396;2023-02-28T17:03:54;11.60;;;4.32;;
54849;SDS011;47660;51.334;12.396;2023-02-28T17:06:23;7.63;;;4.55;;
54849;SDS011;47660;51.334;12.396;2023-02-28T17:08:53;12.05;;;3.90;;
54849;SDS011;47660;51.334;12.396;2023-02-28T17:11:19;7.72;;;3.65;;
54849;SDS011;47660;51.334;12.396;2023-02-28T17:13:45;8.85;;;4.85;;
54849;SDS011;47660;51.334;12.396;2023-02-28T17:16:17;11.15;;;4.88;;
54849;SDS011;47660;51.334;12.396;2023-02-28T17:18:51;8.60;;;4.05;;
54849;SDS011;47660;51.334;12.396;2023-02-28T17:21:19;13.10;;;5.10;;
54849;SDS011;47660;51.334;12.396;2023-02-28T17:23:48;8.73;;;3.92;;
54849;SDS011;47660;51.334;12.396;2023-02-28T17:26:17;10.80;;;4.68;;
54849;SDS011;47660;51.334;12.396;2023-02-28T17:28:52;10.27;;;4.47;;
54849;SDS011;47660;51.334;12.396;2023-02-28T17:31:20;9.50;;;4.40;;
54849;SDS011;47660;51.334;12.396;2023-02-28T17:33:46;8.55;;;4.78;;
54849;SDS011;47660;51.334;12.396;2023-02-28T17:36:13;11.55;;;5.50;;
54849;SDS011;47660;51.334;12.396;2023-02-28T17:38:40;15.88;;;5.20;;
54849;SDS011;47660;51.334;12.396;2023-02-28T17:41:06;10.82;;;4.80;;
54849;SDS011;47660;51.334;12.396;2023-02-28T17:43:31;9.32;;;5.32;;
54849;SDS011;47660;51.334;12.396;2023-02-28T17:45:59;11.88;;;5.78;;
54849;SDS011;47660;51.334;12.396;2023-02-28T17:48:25;8.38;;;4.78;;
54849;SDS011;47660;51.334;12.396;2023-02-28T17:50:50;8.43;;;4.93;;
54849;SDS011;47660;51.334;12.396;2023-02-28T17:53:16;9.73;;;5.40;;